Time;durP1;ratioP1;P1;durP2;ratioP2;P2;SDS_P1;SDS_P2;PMS_P1;PMS_P2;Temp;Humidity;BMP_temperature;BMP_pressure;BME280_temperature;BME280_humidity;BME280_pressure;Samples;Min_cycle;Max_cycle;Signal;HPM_P1;HPM_P2
2022/05/18 00:01:22;;;;;;;0.60;0.60;;;;;;;9.46;37.83;101317.73;103577;1277;99496;-65
2022/05/18 00:03:52;;;;;;;0.70;0.70;;;;;;;9.44;37.74;101317.02;103427;1277;108910;-66
2022/05/18 00:06:20;;;;;;;0.60;0.60;;;;;;;9.45;37.67;101316.13;103539;1277;138614;-66
2022/05/18 00:08:48;;;;;;;0.60;0.60;;;;;;;9.48;37.98;101318.23;104027;1277;95232;-64
2022/05/18 00:11:18;;;;;;;0.60;0.60;;;;;;;9.44;38.00;101318.96;103456;1277;138347;-66
2022/05/18 00:13:48;;;;;;;0.60;0.60;;;;;;;9.37;38.18;101319.55;103713;1277;99390;-66
2022/05/18 00:16:17;;;;;;;0.60;0.60;;;;;;;9.39;38.47;101321.48;103770;1277;107800;-65
2022/05/18 00:18:45;;;;;;;0.60;0.60;;;;;;;9.33;38.70;101323.47;103520;1277;138353;-66
2022/05/18 00:21:14;;;;;;;0.70;0.70;;;;;;;9.32;38.79;101326.48;103649;1277;95103;-66
2022/05/18 00:23:42;;;;;;;0.60;0.60;;;;;;;9.25;39.01;101327.42;103520;1277;137784;-66
2022/05/18 00:26:10;;;;;;;0.60;0.60;;;;;;;9.25;39.15;101331.14;103704;1277;99451;-66
2022/05/18 00:28:38;;;;;;;0.70;0.70;;;;;;;9.27;38.93;101333.25;103854;1277;108848;-66
2022/05/18 00:31:06;;;;;;;0.70;0.70;;;;;;;9.28;39.41;101335.73;103717;1276;95496;-66
2022/05/18 00:33:34;;;;;;;0.60;0.60;;;;;;;9.27;39.72;101332.20;103597;1277;95786;-64
2022/05/18 00:36:03;;;;;;;0.70;0.70;;;;;;;9.26;39.56;101332.91;103577;1277;140182;-66
2022/05/18 00:38:31;;;;;;;0.60;0.60;;;;;;;9.19;39.80;101341.81;103684;1278;99326;-67
2022/05/18 00:40:59;;;;;;;0.60;0.60;;;;;;;9.19;39.84;101343.94;103481;1275;138100;-67
2022/05/18 00:43:29;;;;;;;0.60;0.60;;;;;;;9.23;40.02;101347.64;103604;1278;95262;-66
2022/05/18 00:46:00;;;;;;;0.60;0.60;;;;;;;9.23;40.12;101350.48;103635;1277;96686;-66
2022/05/18 00:48:28;;;;;;;0.60;0.60;;;;;;;9.13;40.36;101354.59;103595;1277;137853;-64
2022/05/18 00:51:00;;;;;;;0.60;0.60;;;;;;;9.10;40.39;101361.16;103699;1277;99400;-65
2022/05/18 00:53:34;;;;;;;0.60;0.60;;;;;;;9.09;40.49;101365.42;103565;1277;138536;-66
2022/05/18 00:56:08;;;;;;;0.70;0.70;;;;;;;9.09;40.39;101364.71;103820;1277;95325;-65
2022/05/18 00:58:47;;;;;;;0.60;0.60;;;;;;;9.05;40.40;101369.70;103630;1277;95659;-66
2022/05/18 01:01:16;;;;;;;0.60;0.60;;;;;;;8.98;40.62;101374.15;103715;1277;109922;-66
2022/05/18 01:03:48;;;;;;;0.60;0.60;;;;;;;8.88;41.13;101381.27;103662;1277;99573;-67
2022/05/18 01:06:31;;;;;;;0.60;0.60;;;;;;;8.85;41.17;101381.10;103537;1277;140044;-67
2022/05/18 01:09:04;;;;;;;0.70;0.70;;;;;;;8.75;41.66;101382.19;103663;1278;96077;-67
2022/05/18 01:11:35;;;;;;;0.60;0.60;;;;;;;8.68;41.87;101384.70;103536;1278;137810;-65
2022/05/18 01:14:10;;;;;;;0.70;0.70;;;;;;;8.69;42.36;101383.81;103584;1277;109664;-66
2022/05/18 01:16:38;;;;;;;0.70;0.70;;;;;;;8.69;42.43;101386.27;103743;1277;99472;-66
2022/05/18 01:19:14;;;;;;;0.70;0.70;;;;;;;8.68;42.70;101388.95;103647;1277;108852;-67
2022/05/18 01:21:53;;;;;;;0.70;0.70;;;;;;;8.66;43.05;101389.48;103665;1278;97018;-65
2022/05/18 01:24:30;;;;;;;0.90;0.90;;;;;;;8.69;43.07;101390.01;103572;1278;138286;-66
2022/05/18 01:27:01;;;;;;;0.70;0.70;;;;;;;8.67;43.11;101391.95;103578;1277;109721;-66
2022/05/18 01:29:31;;;;;;;0.70;0.70;;;;;;;8.64;43.22;101396.57;103515;1277;138754;-66
2022/05/18 01:32:03;;;;;;;0.70;0.70;;;;;;;8.59;43.46;101405.77;103635;1276;108894;-66
2022/05/18 01:34:35;;;;;;;0.70;0.70;;;;;;;8.58;43.46;101400.47;103629;1274;95149;-66
2022/05/18 01:37:03;;;;;;;0.70;0.70;;;;;;;8.61;43.83;101401.70;103613;1275;137355;-66
2022/05/18 01:39:45;;;;;;;0.70;0.70;;;;;;;8.65;43.71;101402.22;103697;1277;110277;-65
2022/05/18 01:42:13;;;;;;;0.70;0.70;;;;;;;8.67;43.68;101401.86;103751;1275;137934;-66
2022/05/18 01:44:41;;;;;;;0.70;0.70;;;;;;;8.65;43.72;101406.83;103642;1277;108357;-67
2022/05/18 01:47:09;;;;;;;0.80;0.80;;;;;;;8.59;43.72;101404.72;103446;1277;138324;-66
2022/05/18 01:49:40;;;;;;;0.70;0.70;;;;;;;8.56;43.52;101410.40;103638;1277;95439;-66
2022/05/18 01:52:10;;;;;;;0.70;0.70;;;;;;;8.48;43.37;101413.05;103672;1275;109208;-67
2022/05/18 01:54:41;;;;;;;0.70;0.70;;;;;;;8.40;43.46;101411.97;103836;1274;137988;-65
2022/05/18 01:57:09;;;;;;;0.70;0.70;;;;;;;8.30;43.44;101407.20;103655;1277;109116;-66
2022/05/18 01:59:37;;;;;;;0.80;0.80;;;;;;;8.19;43.54;101409.31;103515;1278;138479;-67
2022/05/18 02:02:13;;;;;;;0.80;0.80;;;;;;;8.10;43.77;101414.10;103642;1278;95208;-66
2022/05/18 02:04:43;;;;;;;0.80;0.80;;;;;;;8.11;43.92;101417.65;103529;1277;138027;-66
2022/05/18 02:07:12;;;;;;;0.90;0.90;;;;;;;8.17;43.80;101419.59;103881;1277;99342;-67
2022/05/18 02:09:40;;;;;;;0.80;0.80;;;;;;;8.15;43.95;101420.47;103627;1277;108810;-66
2022/05/18 02:12:10;;;;;;;0.80;0.80;;;;;;;8.17;43.61;101424.89;103548;1277;138277;-67
2022/05/18 02:14:38;;;;;;;0.80;0.80;;;;;;;8.22;43.84;101428.08;103848;1277;95620;-67
2022/05/18 02:17:05;;;;;;;0.80;0.80;;;;;;;8.19;43.84;101426.67;103502;1276;138012;-65
2022/05/18 02:19:34;;;;;;;0.80;0.80;;;;;;;8.15;43.85;101428.97;103589;1275;99388;-66
2022/05/18 02:22:02;;;;;;;0.80;0.80;;;;;;;8.17;44.01;101428.25;103403;1277;108990;-65
2022/05/18 02:24:30;;;;;;;0.80;0.80;;;;;;;8.23;43.85;101432.15;107534;1275;138543;-66
2022/05/18 02:26:58;;;;;;;0.90;0.90;;;;;;;8.28;43.98;101433.73;107674;1275;93411;-67
2022/05/18 02:29:26;;;;;;;0.80;0.80;;;;;;;8.27;43.96;101434.08;103854;1277;138368;-66
2022/05/18 02:31:54;;;;;;;1.00;1.00;;;;;;;8.24;44.05;101434.98;103593;1276;98383;-65
2022/05/18 02:34:22;;;;;;;0.80;0.80;;;;;;;8.25;44.45;101438.86;103465;1277;108952;-66
2022/05/18 02:36:50;;;;;;;0.90;0.90;;;;;;;8.12;44.57;101441.88;103423;1277;137595;-66
2022/05/18 02:39:21;;;;;;;0.80;0.80;;;;;;;8.12;44.26;101444.52;103431;1277;95223;-66
2022/05/18 02:41:50;;;;;;;0.80;0.80;;;;;;;8.14;44.47;101445.94;103352;1277;137720;-66
2022/05/18 02:44:19;;;;;;;0.80;0.80;;;;;;;8.12;44.56;101448.06;104013;1277;98439;-66
2022/05/18 02:46:47;;;;;;;0.70;0.70;;;;;;;8.10;45.05;101453.91;103374;1274;137869;-66
2022/05/18 02:49:16;;;;;;;0.80;0.80;;;;;;;8.05;44.87;101458.48;107650;1276;93400;-66
2022/05/18 02:51:43;;;;;;;0.80;0.80;;;;;;;8.05;45.04;101462.92;107610;1274;93504;-67
2022/05/18 02:57:03;;;;;;;0.80;0.80;;;;;;;7.90;45.59;101471.20;103596;1277;100408;-67
2022/05/18 02:59:32;;;;;;;0.80;0.80;;;;;;;7.86;45.73;101474.02;103594;1277;137978;-65
2022/05/18 03:02:01;;;;;;;0.80;0.80;;;;;;;7.86;46.03;101478.45;103737;1276;95454;-66
2022/05/18 03:04:30;;;;;;;0.80;0.80;;;;;;;7.90;45.73;101482.88;103802;1277;95195;-66
2022/05/18 03:06:59;;;;;;;0.90;0.90;;;;;;;7.90;45.89;101488.00;103566;1274;137556;-66
2022/05/18 03:09:27;;;;;;;0.80;0.80;;;;;;;7.78;46.25;101492.92;103834;1277;98339;-67
2022/05/18 03:11:56;;;;;;;0.80;0.80;;;;;;;7.68;46.66;101494.13;103542;1277;137750;-66
2022/05/18 03:14:25;;;;;;;0.80;0.80;;;;;;;7.66;46.83;101496.95;104123;1277;95113;-65
2022/05/18 03:16:53;;;;;;;0.90;0.90;;;;;;;7.58;46.94;101498.52;103646;1277;137916;-65
2022/05/18 03:19:22;;;;;;;0.80;0.80;;;;;;;7.64;46.69;101504.90;103657;1277;109667;-67
2022/05/18 03:24:38;;;;;;;0.90;0.90;;;;;;;7.55;47.10;101515.81;103517;1277;138248;-67
2022/05/18 03:27:10;;;;;;;0.90;0.90;;;;;;;7.57;47.36;101519.89;103892;1274;95880;-64
2022/05/18 03:29:37;;;;;;;1.00;1.00;;;;;;;7.61;47.50;101525.04;103655;1276;137857;-67
2022/05/18 03:32:06;;;;;;;0.90;0.90;;;;;;;7.64;47.22;101528.41;103607;1275;109648;-66
2022/05/18 03:34:35;;;;;;;0.90;0.90;;;;;;;7.66;47.51;101531.59;103710;1277;100090;-67
2022/05/18 03:37:03;;;;;;;0.80;0.80;;;;;;;7.70;47.36;101531.79;103619;1277;138256;-66
2022/05/18 03:39:31;;;;;;;0.80;0.80;;;;;;;7.70;47.56;101529.31;103695;1274;95485;-67
2022/05/18 03:41:59;;;;;;;0.80;0.80;;;;;;;7.76;47.61;101534.47;103546;1277;137764;-65
2022/05/18 03:44:28;;;;;;;1.00;1.00;;;;;;;7.84;47.49;101542.27;103855;1275;109712;-64
2022/05/18 03:46:56;;;;;;;0.80;0.80;;;;;;;7.86;47.52;101546.16;103516;1275;138243;-67
2022/05/18 03:49:24;;;;;;;0.90;0.90;;;;;;;7.91;47.56;101548.30;103729;1277;108786;-66
2022/05/18 03:51:52;;;;;;;0.90;0.90;;;;;;;7.94;47.66;101552.02;103637;1274;98080;-65
2022/05/18 03:54:20;;;;;;;0.90;0.90;;;;;;;7.80;48.24;101558.35;103528;1274;138200;-66
2022/05/18 03:56:48;;;;;;;0.80;0.80;;;;;;;7.69;48.35;101566.96;103274;1277;401136;-66
2022/05/18 03:59:16;;;;;;;0.80;0.80;;;;;;;7.70;48.87;101570.68;103530;1276;139150;-66
2022/05/18 04:01:44;;;;;;;0.80;0.80;;;;;;;7.68;49.01;101569.27;103619;1277;109086;-66
2022/05/18 04:04:12;;;;;;;0.80;0.80;;;;;;;7.72;49.19;101576.35;103771;1277;96964;-65
2022/05/18 04:06:41;;;;;;;0.90;0.90;;;;;;;7.75;49.05;101579.36;103535;1277;137977;-66
2022/05/18 04:09:09;;;;;;;0.80;0.80;;;;;;;7.69;49.16;101582.88;103885;1276;110127;-66
2022/05/18 04:11:37;;;;;;;0.90;0.90;;;;;;;7.67;49.54;101585.34;103621;1277;137999;-66
2022/05/18 04:14:05;;;;;;;0.90;0.90;;;;;;;7.71;49.53;101589.59;103646;1277;108758;-65
2022/05/18 04:16:34;;;;;;;0.80;0.80;;;;;;;7.77;49.76;101593.33;103597;1277;95150;-66
2022/05/18 04:19:02;;;;;;;0.90;0.90;;;;;;;7.80;49.76;101593.00;103586;1276;137646;-65
2022/05/18 04:21:31;;;;;;;0.90;0.90;;;;;;;7.87;49.77;101593.20;103650;1277;109806;-64
2022/05/18 04:23:58;;;;;;;1.00;1.00;;;;;;;7.93;49.63;101596.76;103533;1277;137872;-66
2022/05/18 04:26:26;;;;;;;0.80;0.80;;;;;;;8.02;49.85;101594.31;103663;1277;108885;-65
2022/05/18 04:28:54;;;;;;;0.80;0.80;;;;;;;8.11;49.69;101597.18;103612;1277;138055;-65
2022/05/18 04:31:22;;;;;;;0.90;0.90;;;;;;;8.23;49.65;101593.14;103641;1277;95455;-65
2022/05/18 04:33:50;;;;;;;0.80;0.80;;;;;;;8.29;49.83;101595.45;103662;1275;109685;-67
2022/05/18 04:36:18;;;;;;;0.80;0.80;;;;;;;8.42;49.59;101594.95;103554;1277;137917;-66
2022/05/18 04:38:47;;;;;;;0.80;0.80;;;;;;;8.49;49.81;101597.83;103873;1275;108870;-64
2022/05/18 04:41:16;;;;;;;0.90;0.90;;;;;;;8.49;50.02;101598.02;103641;1274;138475;-66
2022/05/18 04:43:44;;;;;;;0.80;0.80;;;;;;;8.58;50.25;101599.80;103599;1275;95542;-66
2022/05/18 04:46:12;;;;;;;0.80;0.80;;;;;;;8.64;50.47;101597.85;103714;1277;109635;-66
2022/05/18 04:48:41;;;;;;;0.80;0.80;;;;;;;8.70;50.52;101593.79;103562;1275;138399;-66
2022/05/18 04:51:09;;;;;;;0.80;0.80;;;;;;;8.76;50.78;101590.25;103687;1274;109032;-66
2022/05/18 04:53:37;;;;;;;0.80;0.80;;;;;;;8.73;50.90;101600.68;103540;1275;136837;-66
2022/05/18 04:56:06;;;;;;;0.80;0.80;;;;;;;8.68;50.61;101602.81;103715;1277;95389;-66
2022/05/18 04:58:34;;;;;;;0.70;0.70;;;;;;;8.68;50.98;101600.70;104016;1277;109963;-66
2022/05/18 05:01:06;;;;;;;0.70;0.70;;;;;;;8.79;50.60;101593.09;103658;1275;137646;-66
2022/05/18 05:03:35;;;;;;;0.70;0.70;;;;;;;8.97;50.55;101590.95;103584;1277;108794;-66
2022/05/18 05:06:05;;;;;;;0.70;0.70;;;;;;;9.13;50.17;101590.23;103481;1274;137831;-66
2022/05/18 05:08:34;;;;;;;0.70;0.70;;;;;;;9.31;49.69;101590.92;103676;1277;95140;-66
2022/05/18 05:11:03;;;;;;;0.70;0.70;;;;;;;9.49;49.22;101588.75;103659;1274;138175;-67
2022/05/18 05:13:33;;;;;;;0.70;0.70;;;;;;;9.57;48.54;101585.54;103702;1274;98586;-66
2022/05/18 05:16:07;;;;;;;0.70;0.70;;;;;;;9.67;48.81;101590.11;103765;1277;108755;-67
2022/05/18 05:18:36;;;;;;;0.60;0.60;;;;;;;9.81;48.12;101585.98;103511;1274;137854;-65
2022/05/18 05:21:05;;;;;;;0.60;0.60;;;;;;;9.88;48.17;101596.06;103718;1277;95532;-64
2022/05/18 05:23:33;;;;;;;0.60;0.60;;;;;;;9.99;48.06;101600.09;103540;1275;138092;-67
2022/05/18 05:26:02;;;;;;;0.70;0.70;;;;;;;10.13;47.41;101601.09;103581;1277;100001;-64
2022/05/18 05:28:30;;;;;;;0.60;0.60;;;;;;;10.25;46.64;101605.83;103845;1275;109101;-67
2022/05/18 05:31:06;;;;;;;0.70;0.70;;;;;;;10.33;46.35;101609.89;103696;1274;138006;-67
2022/05/18 05:33:35;;;;;;;0.50;0.50;;;;;;;10.41;46.03;101611.98;103757;1277;95186;-67
2022/05/18 05:36:04;;;;;;;0.50;0.50;;;;;;;10.43;46.18;101616.59;103803;1277;137802;-67
2022/05/18 05:38:32;;;;;;;0.60;0.60;;;;;;;10.45;46.11;101614.79;103733;1277;99377;-66
2022/05/18 05:41:01;;;;;;;0.60;0.60;;;;;;;10.51;45.59;101619.56;103720;1277;138482;-67
2022/05/18 05:43:31;;;;;;;0.60;0.60;;;;;;;10.60;45.54;101618.06;103663;1277;95721;-66
2022/05/18 05:46:02;;;;;;;0.50;0.50;;;;;;;10.61;45.14;101621.63;103515;1277;95933;-66
2022/05/18 05:48:32;;;;;;;0.50;0.50;;;;;;;10.61;45.14;101628.02;103343;1277;138170;-66
2022/05/18 05:51:01;;;;;;;0.60;0.60;;;;;;;10.75;44.96;101635.02;103475;1277;99133;-65
2022/05/18 05:53:32;;;;;;;0.50;0.50;;;;;;;10.75;44.57;101636.45;105151;1277;138438;-65
2022/05/18 05:56:02;;;;;;;0.50;0.50;;;;;;;10.72;44.68;101638.23;103980;1277;95556;-66
2022/05/18 05:58:33;;;;;;;0.50;0.50;;;;;;;10.87;44.36;101641.85;103364;1277;95261;-66
2022/05/18 06:01:07;;;;;;;0.50;0.50;;;;;;;10.96;43.90;101644.46;105581;1276;138291;-66
2022/05/18 06:03:36;;;;;;;0.50;0.40;;;;;;;10.94;43.94;101648.04;103581;1277;99366;-65
2022/05/18 06:06:05;;;;;;;0.50;0.40;;;;;;;10.92;43.85;101652.30;107539;1275;137942;-66
2022/05/18 06:08:33;;;;;;;0.50;0.50;;;;;;;11.02;44.09;101654.20;106326;1275;95227;-66
2022/05/18 06:11:02;;;;;;;0.50;0.50;;;;;;;11.20;43.49;101655.45;103422;1277;138678;-65
2022/05/18 06:13:31;;;;;;;0.50;0.50;;;;;;;11.33;43.40;101657.11;106113;1276;109742;-66
2022/05/18 06:16:00;;;;;;;0.50;0.50;;;;;;;11.46;43.10;101659.33;103531;1277;99464;-66
2022/05/18 06:18:29;;;;;;;0.50;0.50;;;;;;;11.50;42.80;101664.61;103907;1277;138681;-65
2022/05/18 06:20:59;;;;;;;0.50;0.40;;;;;;;11.55;42.36;101665.98;103743;1277;97465;-66
2022/05/18 06:23:27;;;;;;;0.50;0.40;;;;;;;11.60;42.63;101668.25;103762;1276;138566;-67
2022/05/18 06:26:00;;;;;;;0.50;0.40;;;;;;;11.88;42.26;101664.23;103861;1277;110002;-66
2022/05/18 06:28:29;;;;;;;0.50;0.40;;;;;;;12.43;41.56;101669.79;103782;1277;99317;-66
2022/05/18 06:30:57;;;;;;;0.40;0.40;;;;;;;12.85;40.67;101674.55;103590;1277;137916;-67
2022/05/18 06:33:25;;;;;;;0.40;0.30;;;;;;;13.21;40.08;101672.36;103744;1277;95819;-67
2022/05/18 06:35:53;;;;;;;0.40;0.40;;;;;;;13.52;39.68;101672.39;103563;1277;138568;-66
2022/05/18 06:38:23;;;;;;;0.40;0.30;;;;;;;13.79;38.79;101675.64;103676;1277;109778;-66
2022/05/18 06:43:38;;;;;;;0.40;0.30;;;;;;;13.65;38.51;101679.83;103733;1275;108845;-65
2022/05/18 06:46:06;;;;;;;0.40;0.30;;;;;;;13.66;38.92;101682.48;103771;1277;95649;-67
2022/05/18 06:48:35;;;;;;;0.40;0.30;;;;;;;13.62;38.65;101679.70;103681;1277;138504;-66
2022/05/18 06:51:19;;;;;;;0.40;0.30;;;;;;;13.58;38.28;101681.04;103739;1276;109712;-66
2022/05/18 06:53:51;;;;;;;0.40;0.30;;;;;;;13.60;38.36;101680.84;103561;1277;139127;-65
2022/05/18 06:56:22;;;;;;;0.40;0.30;;;;;;;13.71;38.04;101679.55;103859;1277;108954;-66
2022/05/18 06:58:52;;;;;;;0.50;0.40;;;;;;;13.70;37.69;101681.33;103522;1277;138547;-67
2022/05/18 07:01:21;;;;;;;0.40;0.30;;;;;;;13.74;37.23;101684.67;103862;1276;95718;-66
2022/05/18 07:03:49;;;;;;;0.40;0.30;;;;;;;13.70;37.33;101684.20;103817;1277;108678;-65
2022/05/18 07:06:21;;;;;;;0.40;0.30;;;;;;;13.61;37.08;101687.05;104269;1277;138423;-66
2022/05/18 07:08:54;;;;;;;0.40;0.30;;;;;;;13.61;37.31;101694.54;103701;1277;108163;-66
2022/05/18 07:11:24;;;;;;;0.40;0.30;;;;;;;13.64;37.16;101697.69;103296;1277;138567;-65
2022/05/18 07:13:53;;;;;;;0.40;0.30;;;;;;;13.71;37.23;101697.93;104920;1277;95166;-65
2022/05/18 07:16:23;;;;;;;0.40;0.30;;;;;;;13.68;36.99;101702.44;103536;1276;109724;-65
2022/05/18 07:18:52;;;;;;;0.50;0.40;;;;;;;13.61;37.47;101703.11;103482;1277;138168;-65
2022/05/18 07:21:21;;;;;;;0.40;0.30;;;;;;;13.66;38.18;101700.52;107681;1275;108873;-65
2022/05/18 07:23:49;;;;;;;0.40;0.30;;;;;;;13.63;37.64;101704.66;104470;1275;138246;-65
2022/05/18 07:26:17;;;;;;;0.40;0.30;;;;;;;13.62;38.07;101703.27;104111;1275;96220;-64
2022/05/18 07:28:46;;;;;;;0.40;0.30;;;;;;;13.58;37.55;101710.83;103676;1277;138799;-65
2022/05/18 07:31:15;;;;;;;0.40;0.30;;;;;;;13.58;37.11;101706.92;103648;1276;99427;-66
2022/05/18 07:34:03;;;;;;;0.40;0.30;;;;;;;13.61;37.28;101708.46;103628;1277;108837;-65
2022/05/18 07:36:31;;;;;;;0.40;0.30;;;;;;;13.62;37.14;101705.59;103687;1276;138305;-64
2022/05/18 07:38:59;;;;;;;0.40;0.30;;;;;;;13.60;36.59;101702.41;103717;1276;95300;-65
2022/05/18 07:41:27;;;;;;;0.40;0.30;;;;;;;13.63;36.73;101698.62;103539;1277;138140;-65
2022/05/18 07:43:55;;;;;;;0.40;0.30;;;;;;;13.71;37.25;101700.05;103640;1277;99481;-65
2022/05/18 07:46:23;;;;;;;0.40;0.30;;;;;;;13.87;36.85;101700.84;103625;1277;108976;-65
2022/05/18 07:48:51;;;;;;;0.40;0.30;;;;;;;14.05;36.81;101701.74;103541;1277;138775;-66
2022/05/18 07:51:19;;;;;;;0.40;0.30;;;;;;;14.11;36.50;101698.40;103684;1277;95788;-65
2022/05/18 07:53:47;;;;;;;0.40;0.30;;;;;;;14.21;35.94;101692.67;103385;1277;138691;-66
2022/05/18 07:56:15;;;;;;;0.40;0.30;;;;;;;14.30;35.46;101696.23;103669;1277;99392;-67
2022/05/18 07:58:43;;;;;;;0.40;0.30;;;;;;;14.30;35.08;101698.21;103521;1277;138285;-66
2022/05/18 08:01:11;;;;;;;0.40;0.20;;;;;;;14.38;35.09;101697.49;103547;1277;95339;-66
2022/05/18 08:03:39;;;;;;;0.40;0.30;;;;;;;14.47;35.57;101700.70;103599;1276;95913;-65
2022/05/18 08:06:10;;;;;;;0.40;0.20;;;;;;;14.52;35.36;101693.61;103628;1277;138241;-65
2022/05/18 08:08:41;;;;;;;0.40;0.20;;;;;;;14.66;35.49;101695.11;103739;1277;98490;-65
2022/05/18 08:16:53;;;;;;;0.40;0.20;;;;;;;14.88;34.72;101687.30;103628;1277;138129;-65
2022/05/18 08:19:22;;;;;;;0.40;0.20;;;;;;;14.92;34.31;101685.06;103773;1277;108026;-64
2022/05/18 08:21:53;;;;;;;0.40;0.20;;;;;;;14.84;34.25;101680.23;103705;1277;97745;-66
2022/05/18 08:24:21;;;;;;;0.40;0.20;;;;;;;15.00;34.52;101683.26;103547;1277;138167;-64
2022/05/18 08:26:49;;;;;;;0.40;0.20;;;;;;;15.18;33.76;101683.88;103907;1277;95249;-65
2022/05/18 08:29:18;;;;;;;0.40;0.20;;;;;;;15.31;33.52;101683.40;103630;1277;138630;-64
2022/05/18 08:31:49;;;;;;;0.40;0.20;;;;;;;15.46;33.01;101681.94;103688;1277;110130;-64
2022/05/18 08:34:19;;;;;;;0.40;0.20;;;;;;;15.58;32.70;101682.88;103743;1277;99375;-65
2022/05/18 08:36:49;;;;;;;0.40;0.20;;;;;;;15.71;31.94;101681.98;103643;1277;138109;-67
2022/05/18 08:39:17;;;;;;;0.40;0.20;;;;;;;15.83;31.80;101677.38;103550;1277;95608;-66
2022/05/18 08:41:49;;;;;;;0.40;0.20;;;;;;;16.01;31.96;101679.05;103615;1277;138128;-66
2022/05/18 08:44:25;;;;;;;0.40;0.20;;;;;;;16.09;30.58;101680.61;103796;1277;109643;-65
2022/05/18 08:47:02;;;;;;;0.40;0.20;;;;;;;16.19;30.81;101676.17;103815;1277;138482;-66
2022/05/18 08:49:40;;;;;;;0.40;0.20;;;;;;;16.35;30.90;101678.04;103892;1277;108719;-65
2022/05/18 08:52:17;;;;;;;0.40;0.20;;;;;;;16.43;30.30;101679.61;103655;1277;95436;-67
2022/05/18 08:55:30;;;;;;;0.40;0.20;;;;;;;16.60;30.39;101678.73;103651;1275;138244;-66
2022/05/18 08:58:00;;;;;;;0.40;0.10;;;;;;;16.92;29.60;101675.42;103351;1277;108827;-66
2022/05/18 09:00:34;;;;;;;0.40;0.20;;;;;;;17.06;28.41;101680.54;103306;1277;138944;-65
2022/05/18 09:03:16;;;;;;;0.40;0.10;;;;;;;17.07;28.31;101676.18;103700;1277;109083;-65
2022/05/18 09:05:58;;;;;;;0.40;0.20;;;;;;;17.23;28.63;101677.63;103296;1276;138451;-66
2022/05/18 09:08:36;;;;;;;0.40;0.20;;;;;;;17.42;28.60;101678.97;103746;1276;95721;-65
2022/05/18 09:11:06;;;;;;;0.40;0.20;;;;;;;17.59;28.50;101675.14;103610;1277;138274;-62
2022/05/18 09:13:38;;;;;;;0.40;0.20;;;;;;;17.74;28.41;101672.48;103650;1274;98972;-65
2022/05/18 09:16:28;;;;;;;0.40;0.10;;;;;;;17.86;27.53;101667.16;103794;1277;107777;-65
2022/05/18 09:19:18;;;;;;;0.40;0.10;;;;;;;18.05;27.36;101668.31;103532;1277;138474;-65
2022/05/18 09:22:21;;;;;;;0.40;0.10;;;;;;;18.29;26.79;101667.96;103619;1277;95137;-66
2022/05/18 09:25:17;;;;;;;0.40;0.20;;;;;;;18.50;26.61;101665.36;103537;1277;138319;-66
2022/05/18 09:28:00;;;;;;;0.40;0.20;;;;;;;19.47;27.03;101657.42;103494;1277;99348;-64
2022/05/18 09:30:55;;;;;;;0.40;0.10;;;;;;;21.50;25.05;101653.22;103540;1277;138113;-65
2022/05/18 09:33:47;;;;;;;0.40;0.10;;;;;;;23.35;22.16;101651.27;103595;1276;95440;-65
2022/05/18 09:36:58;;;;;;;0.40;0.10;;;;;;;24.64;21.07;101648.55;103544;1277;138564;-63
2022/05/18 09:39:32;;;;;;;0.40;0.10;;;;;;;26.15;19.33;101648.58;103606;1275;110030;-65
2022/05/18 09:42:06;;;;;;;0.40;0.10;;;;;;;27.19;18.60;101648.41;103531;1277;138326;-64
2022/05/18 09:45:03;;;;;;;0.50;0.40;;;;;;;28.23;17.68;101639.14;103741;1275;109044;-64
2022/05/18 09:47:39;;;;;;;0.40;0.00;;;;;;;29.08;16.40;101642.08;103560;1277;138404;-65
2022/05/18 09:50:09;;;;;;;0.40;0.00;;;;;;;29.95;15.98;101639.48;103682;1277;95143;-66
2022/05/18 09:52:39;;;;;;;0.40;0.00;;;;;;;30.45;15.25;101642.58;104361;1276;110206;-65
2022/05/18 09:55:11;;;;;;;0.40;0.00;;;;;;;30.97;15.06;101644.71;103692;1277;100094;-65
2022/05/18 09:58:15;;;;;;;0.40;0.00;;;;;;;31.62;14.24;101645.09;103833;1276;107665;-65
2022/05/18 10:00:43;;;;;;;0.40;0.00;;;;;;;32.07;13.14;101640.35;103721;1276;138267;-63
2022/05/18 10:09:14;;;;;;;0.40;0.00;;;;;;;33.28;12.55;101634.31;103674;1277;99437;-65
2022/05/18 10:11:43;;;;;;;0.40;0.00;;;;;;;33.74;12.51;101636.70;104056;1277;137956;-67
2022/05/18 10:14:16;;;;;;;0.40;0.00;;;;;;;33.89;12.67;101634.27;103879;1277;96273;-65
2022/05/18 10:16:48;;;;;;;0.40;0.00;;;;;;;33.73;12.73;101631.69;103474;1276;138323;-66
2022/05/18 10:19:51;;;;;;;0.40;0.00;;;;;;;33.86;11.99;101637.36;103606;1277;109566;-66
2022/05/18 10:22:24;;;;;;;0.40;0.00;;;;;;;34.09;11.42;101636.14;103438;1276;99908;-66
2022/05/18 10:25:04;;;;;;;0.40;0.00;;;;;;;34.28;11.35;101626.57;103654;1275;138079;-64
2022/05/18 10:27:39;;;;;;;0.40;0.00;;;;;;;34.27;11.30;101630.71;104007;1277;95263;-65
2022/05/18 10:30:32;;;;;;;0.40;0.00;;;;;;;34.42;11.28;101628.38;103594;1277;138533;-65
2022/05/18 10:33:08;;;;;;;0.40;0.00;;;;;;;34.32;11.55;101628.54;103630;1277;108787;-65
2022/05/18 10:35:48;;;;;;;0.40;0.00;;;;;;;34.47;11.80;101623.47;103673;1277;139029;-65
2022/05/18 10:38:28;;;;;;;0.40;0.00;;;;;;;34.97;11.43;101620.31;103371;1277;108854;-64
2022/05/18 10:41:13;;;;;;;0.40;0.00;;;;;;;35.33;11.38;101615.20;103485;1277;138417;-65
2022/05/18 10:43:56;;;;;;;0.40;0.00;;;;;;;35.53;11.25;101613.91;103812;1277;95220;-65
2022/05/18 10:46:44;;;;;;;0.40;0.00;;;;;;;35.72;10.91;101613.61;103387;1277;110347;-65
2022/05/18 10:49:34;;;;;;;0.40;0.00;;;;;;;35.89;10.84;101621.05;103865;1277;99912;-64
2022/05/18 10:52:30;;;;;;;0.40;0.00;;;;;;;35.89;10.97;101619.77;103973;1276;108785;-63
2022/05/18 10:55:03;;;;;;;0.40;0.00;;;;;;;35.96;10.73;101616.59;103470;1277;140074;-65
2022/05/18 10:57:38;;;;;;;0.40;0.00;;;;;;;34.80;10.90;101606.48;103402;1276;95316;-65
2022/05/18 11:00:14;;;;;;;0.40;0.00;;;;;;;33.08;12.22;101605.19;103567;1275;138057;-64
2022/05/18 11:02:58;;;;;;;0.40;0.00;;;;;;;31.39;13.17;101609.78;103577;1277;99391;-65
2022/05/18 11:05:44;;;;;;;0.40;0.00;;;;;;;30.14;13.87;101609.19;103699;1275;138114;-65
2022/05/18 11:08:16;;;;;;;0.40;0.00;;;;;;;29.25;14.55;101606.92;103610;1276;95306;-64
2022/05/18 11:10:54;;;;;;;0.40;0.00;;;;;;;28.50;14.72;101607.58;103914;1277;139112;-65
2022/05/18 11:13:50;;;;;;;0.40;0.00;;;;;;;27.59;14.99;101611.20;103719;1276;109755;-64
2022/05/18 11:16:21;;;;;;;0.40;0.00;;;;;;;26.71;15.34;101606.49;103642;1276;99371;-65
2022/05/18 11:19:13;;;;;;;0.40;0.00;;;;;;;25.77;15.95;101601.51;103560;1277;138300;-66
2022/05/18 11:22:03;;;;;;;0.40;0.00;;;;;;;25.03;17.12;101598.05;103506;1277;95999;-65
2022/05/18 11:25:04;;;;;;;0.40;0.00;;;;;;;24.62;17.73;101602.02;103739;1277;138223;-64
2022/05/18 11:28:05;;;;;;;0.40;0.00;;;;;;;24.08;18.05;101598.80;103470;1275;109937;-65
2022/05/18 11:30:39;;;;;;;0.40;0.00;;;;;;;23.68;19.18;101598.80;103484;1277;138165;-63
2022/05/18 11:33:32;;;;;;;0.40;0.00;;;;;;;23.33;18.44;101596.34;103601;1277;108847;-63
2022/05/18 11:36:33;;;;;;;0.40;0.10;;;;;;;23.02;18.99;101596.20;103732;1275;139093;-64
2022/05/18 11:39:14;;;;;;;0.40;0.10;;;;;;;22.74;19.47;101605.10;103552;1276;96009;-64
2022/05/18 11:42:04;;;;;;;0.40;0.10;;;;;;;22.39;18.95;101598.59;103577;1277;138131;-65
2022/05/18 11:45:13;;;;;;;0.40;0.10;;;;;;;22.06;19.22;101599.33;103588;1277;99414;-65
2022/05/18 11:47:49;;;;;;;0.40;0.10;;;;;;;21.83;19.60;101596.59;103359;1277;138562;-65
2022/05/18 11:50:26;;;;;;;0.40;0.10;;;;;;;21.75;19.88;101593.39;103627;1277;95623;-65
2022/05/18 11:52:57;;;;;;;0.40;0.10;;;;;;;21.54;20.08;101590.35;103647;1277;138675;-65
2022/05/18 11:55:52;;;;;;;0.40;0.10;;;;;;;21.43;20.42;101593.06;103375;1277;109657;-65
2022/05/18 11:58:53;;;;;;;0.40;0.10;;;;;;;21.36;19.76;101591.67;103527;1277;99094;-65
2022/05/18 12:01:41;;;;;;;0.40;0.10;;;;;;;21.20;20.05;101587.08;103582;1277;107957;-66
2022/05/18 12:04:38;;;;;;;0.40;0.10;;;;;;;21.15;21.05;101586.38;103562;1277;95858;-65